Red Dolphin — CQOV — position and weather

sailwx.info

Track history (hours):
 
Tides and Currents Weather Stations Pressure Air Temp Water Temp Dewpoint Dewpoint Depression Visibility Wind Speed Wind Dir Waves Ship Positions

Red Dolphin

Last reported at 2014-May-16 15:15 UTC. Time now 2014-Aug-02 04:37 UTC.
Position N 50°17' W 001°34'.
Warning: this ship's position is months out of date.

Length 33 m; draft 5.7 m.

Type: Tanker. MMSI: 255802960.

Date/timePositionNaut miles runAvg speedWind from/ knotsBaromVisibWave heightAir tempDewpointWater temp
2014-May-16 15:15N 50°17' W 001°34'79 8.0
2014-May-16 05:20N 50°37' E 000°27'7 9.4
2014-May-16 04:33N 50°40' E 000°37'31 7.4
2014-May-16 00:25N 50°59' E 001°16'5 5.4
2014-May-15 23:32N 51°02' E 001°22'19 8.2
2014-May-15 21:17N 51°13' E 001°44'104 7.1
2014-May-15 06:29N 51°54' E 004°19'4 3.5
2014-May-15 05:18N 51°54' E 004°26'0 0.0
2014-May-15 04:25N 51°54' E 004°26'0 0.0
2014-May-15 03:18N 51°54' E 004°26'0 0.0
2014-May-15 02:32N 51°54' E 004°26'0 0.0
2014-May-15 01:23N 51°54' E 004°26'0 0.0
2014-May-15 00:25N 51°54' E 004°26'0 0.0
2014-May-14 23:15N 51°54' E 004°26'0 0.0
2014-May-14 22:31N 51°54' E 004°26'0 0.0
2014-May-14 21:30N 51°54' E 004°26'0 0.0
2014-May-14 20:31N 51°54' E 004°26'0 0.0
2014-May-14 19:32N 51°54' E 004°26'0 0.0
2014-May-14 18:30N 51°54' E 004°26'0 0.0
2014-May-14 15:30N 51°54' E 004°26'0 0.0
2014-May-14 14:32N 51°54' E 004°26'0 0.0
2014-May-14 11:19N 51°54' E 004°26'0 0.0
2014-May-14 10:30N 51°54' E 004°26'0 0.0
2014-May-14 09:29N 51°54' E 004°26'0 0.0
2014-May-14 08:20N 51°54' E 004°26'0 0.0
2014-May-14 07:18N 51°54' E 004°26'0 0.0
2014-May-14 06:16N 51°54' E 004°26'0 0.0
2014-May-14 05:32N 51°54' E 004°26'0 0.0
2014-May-14 04:33N 51°54' E 004°26'0 0.0
2014-May-14 03:28N 51°54' E 004°26'0 0.0
2014-May-14 02:32N 51°54' E 004°26'0 0.0
2014-May-14 01:29N 51°54' E 004°26'0 0.0
2014-May-14 00:15N 51°54' E 004°26'0 0.0
2014-May-13 23:26N 51°54' E 004°26'0 0.0
2014-May-13 22:32N 51°54' E 004°26'0 0.0
2014-May-13 21:29N 51°54' E 004°26'0 0.0
2014-May-13 20:33N 51°54' E 004°26'0 0.0
2014-May-13 19:18N 51°54' E 004°26'0 0.0
2014-May-13 17:26N 51°54' E 004°26'0 0.0
2014-May-13 16:31N 51°54' E 004°26'0 0.0
2014-May-13 14:31N 51°54' E 004°26'0 0.0
2014-May-13 13:28N 51°54' E 004°26'0 0.0
2014-May-13 12:32N 51°54' E 004°26'0 0.0
2014-May-13 10:32N 51°54' E 004°26'0 0.0
2014-May-13 09:26N 51°54' E 004°26'0 0.0
2014-May-13 08:31N 51°54' E 004°26'0 0.0
2014-May-13 07:26N 51°54' E 004°26'0 0.0
2014-May-13 06:32N 51°54' E 004°26'0 0.0
2014-May-13 05:26N 51°54' E 004°26'0 0.0
2014-May-13 04:30N 51°54' E 004°26'0 0.0
2014-May-13 03:31N 51°54' E 004°26'0 0.0
2014-May-13 02:31N 51°54' E 004°26'0 0.0
2014-May-13 01:19N 51°54' E 004°26'0 0.0
2014-May-13 00:33N 51°54' E 004°26'0 0.0
2014-May-12 23:27N 51°54' E 004°26'0 0.0
2014-May-12 22:33N 51°54' E 004°26'0 0.0
2014-May-12 21:30N 51°54' E 004°26'0 0.0
2014-May-12 19:21N 51°54' E 004°26'0 0.0
2014-May-12 18:33N 51°54' E 004°26'0 0.0
2014-May-12 17:53N 51°54' E 004°26'0 0.1
2014-May-12 17:28N 51°54' E 004°26'0 0.0
2014-May-12 16:33N 51°54' E 004°26'0 0.0
2014-May-12 15:31N 51°54' E 004°26'0 0.0
2014-May-12 14:33N 51°54' E 004°26'0 0.0
2014-May-12 13:27N 51°54' E 004°26'0 0.0
2014-May-12 12:32N 51°54' E 004°26'0 0.0
2014-May-12 11:29N 51°54' E 004°26'0 0.0
2014-May-12 10:31N 51°54' E 004°26'0 0.0
2014-May-12 09:21N 51°54' E 004°26'0 0.0
2014-May-12 08:31N 51°54' E 004°26'0 0.0
2014-May-12 07:29N 51°54' E 004°26'0 0.0
2014-May-12 05:06N 51°54' E 004°26'0 0.0
2014-May-12 04:33N 51°54' E 004°26'0 0.0
2014-May-12 03:20N 51°54' E 004°26'0 0.0
2014-May-12 02:32N 51°54' E 004°26'0 0.0
2014-May-12 02:16N 51°54' E 004°26'0 0.0
2014-May-12 01:26N 51°54' E 004°26'0 0.0
2014-May-12 00:30N 51°54' E 004°26'0 0.0
2014-May-11 23:20N 51°54' E 004°26'0 0.0
2014-May-11 22:33N 51°54' E 004°26'0 0.0
2014-May-11 21:28N 51°54' E 004°26'0 0.0
2014-May-11 20:30N 51°54' E 004°26'0 0.0
2014-May-11 19:28N 51°54' E 004°26'0 0.0
2014-May-11 18:30N 51°54' E 004°26'0 0.0
2014-May-11 17:31N 51°54' E 004°26'0 0.0
2014-May-11 16:19N 51°54' E 004°26'0 0.0
2014-May-11 15:29N 51°54' E 004°26'0 0.0
2014-May-11 14:30N 51°54' E 004°26'0 0.0
2014-May-11 13:28N 51°54' E 004°26'0 0.0
2014-May-11 12:31N 51°54' E 004°26'0 0.0
2014-May-11 11:12N 51°54' E 004°26'0 0.0
2014-May-11 10:24N 51°54' E 004°26'0 0.0
2014-May-11 09:19N 51°54' E 004°26'0 0.0
2014-May-11 08:33N 51°54' E 004°26'0 0.0
2014-May-11 07:32N 51°54' E 004°26'0 0.0
2014-May-11 06:31N 51°54' E 004°26'0 0.0
2014-May-11 05:31N 51°54' E 004°26'0 0.0
2014-May-11 04:28N 51°54' E 004°26'0 0.0
2014-May-11 03:26N 51°54' E 004°26'0 0.0
2014-May-11 03:03N 51°54' E 004°26'0 0.0
2014-May-11 02:20N 51°54' E 004°26'0 0.0
2014-May-11 01:29N 51°54' E 004°26'0 0.0
2014-May-11 00:33N 51°54' E 004°26'0 0.0
2014-May-10 23:24N 51°54' E 004°26'0 0.0
2014-May-10 21:28N 51°54' E 004°26'0 0.0
2014-May-10 20:30N 51°54' E 004°26'0 0.0
2014-May-10 19:29N 51°54' E 004°26'0 0.0
2014-May-10 18:25N 51°54' E 004°26'0 0.0
2014-May-10 17:29N 51°54' E 004°26'0 0.0
2014-May-10 16:30N 51°54' E 004°26'0 0.0
2014-May-10 15:27N 51°54' E 004°26'0 0.0
2014-May-10 14:29N 51°54' E 004°26'0 0.0
2014-May-10 13:23N 51°54' E 004°26'0 0.0
2014-May-10 12:32N 51°54' E 004°26'0 0.0
2014-May-10 11:26N 51°54' E 004°26'0 0.0
2014-May-10 10:33N 51°54' E 004°26'0 0.0
2014-May-10 09:33N 51°54' E 004°26'0 0.0
2014-May-10 08:32N 51°54' E 004°26'0 0.0
2014-May-09 16:30N 51°54' E 004°26'0 0.0
2014-May-09 15:27N 51°54' E 004°26'0 0.0
2014-May-09 14:24N 51°54' E 004°26'0 0.0
2014-May-09 13:28N 51°54' E 004°26'0 0.0
2014-May-09 12:31N 51°54' E 004°26'0 0.0
2014-May-09 11:23N 51°54' E 004°26'0 0.1
2014-May-09 10:31N 51°54' E 004°26'0 0.1
2014-May-09 09:17N 51°54' E 004°26'0 0.0
2014-May-09 08:32N 51°54' E 004°26'0 0.0
2014-May-09 07:33N 51°54' E 004°26'0 0.0
2014-May-09 06:15N 51°54' E 004°26'0 0.0
2014-May-09 05:27N 51°54' E 004°26'0 0.0
2014-May-09 04:32N 51°54' E 004°26'0 0.0
2014-May-09 03:28N 51°54' E 004°26'0 0.0
2014-May-09 02:33N 51°54' E 004°26'0 0.0
2014-May-09 01:26N 51°54' E 004°26'0 0.0
2014-May-09 00:32N 51°54' E 004°26'0 0.0
2014-May-08 23:29N 51°54' E 004°26'0 0.0
2014-May-08 22:32N 51°54' E 004°26'0 0.0
2014-May-08 21:33N 51°54' E 004°26'0 0.0
2014-May-08 20:15N 51°54' E 004°26'0 0.0
2014-May-08 19:28N 51°54' E 004°26'0 0.0
2014-May-08 18:15N 51°54' E 004°26'0 0.0
2014-May-08 17:28N 51°54' E 004°26'0 0.0
2014-May-08 16:24N 51°54' E 004°26'0 0.0
2014-May-08 15:33N 51°54' E 004°26'0 0.0
2014-May-08 14:21N 51°54' E 004°26'0 0.0
2014-May-08 13:33N 51°54' E 004°26'0 0.0
2014-May-08 12:31N 51°54' E 004°26'0 0.0
2014-May-08 11:27N 51°54' E 004°26'0 0.0
2014-May-08 10:31N 51°54' E 004°26'0 0.0
2014-May-08 09:27N 51°54' E 004°26'0 0.0
2014-May-08 08:31N 51°54' E 004°26'0 0.0
2014-May-08 07:27N 51°54' E 004°26'0 0.0
2014-May-08 06:31N 51°54' E 004°26'0 0.0
2014-May-08 05:25N 51°54' E 004°26'0 0.0
2014-May-08 04:27N 51°54' E 004°26'0 0.0
2014-May-08 03:25N 51°54' E 004°26'0 0.0
2014-May-08 02:30N 51°54' E 004°26'0 0.0
2014-May-08 01:23N 51°54' E 004°26'0 0.0
2014-May-08 00:29N 51°54' E 004°26'0 0.0
2014-May-07 23:26N 51°54' E 004°26'0 0.0
2014-May-07 22:31N 51°54' E 004°26'0 0.0
2014-May-07 21:23N 51°54' E 004°26'0 0.0
2014-May-07 20:33N 51°54' E 004°26'0 0.0
2014-May-07 19:19N 51°54' E 004°26'0 0.0
2014-May-07 18:31N 51°54' E 004°26'0 0.0
2014-May-07 17:19N 51°54' E 004°26'0 0.0
2014-May-07 16:29N 51°54' E 004°26'0 0.0
2014-May-07 15:29N 51°54' E 004°26'0 0.0
2014-May-07 14:31N 51°54' E 004°26'0 0.0
2014-May-07 13:28N 51°54' E 004°26'0 0.0
2014-May-07 12:29N 51°54' E 004°26'0 0.0
2014-May-07 11:26N 51°54' E 004°26'0 0.0
2014-May-07 10:26N 51°54' E 004°26'0 0.0
2014-May-07 09:33N 51°54' E 004°26'0 0.0
2014-May-07 08:32N 51°54' E 004°26'0 0.0
2014-May-07 07:28N 51°54' E 004°26'0 0.0
2014-May-07 05:30N 51°54' E 004°26'0 0.0
2014-May-07 04:30N 51°54' E 004°26'0 0.0
2014-May-07 03:28N 51°54' E 004°26'0 0.0
2014-May-07 02:30N 51°54' E 004°26'0 0.0
2014-May-07 01:20N 51°54' E 004°26'0 0.0
2014-May-07 00:27N 51°54' E 004°26'0 0.0
2014-May-06 23:25N 51°54' E 004°26'0 0.0
2014-May-06 22:30N 51°54' E 004°26'0 0.0
2014-May-06 21:26N 51°54' E 004°26'0 0.0
2014-May-06 20:27N 51°54' E 004°26'0 0.0
2014-May-06 19:19N 51°54' E 004°26'0 0.0
2014-May-06 18:24N 51°54' E 004°26'0 0.0
2014-May-06 17:28N 51°54' E 004°26'0 0.0
2014-May-06 16:33N 51°54' E 004°26'0 0.0
2014-May-06 15:26N 51°54' E 004°26'  
Track history (hours):
 
Tides and Currents Weather Stations Pressure Air Temp Water Temp Dewpoint Dewpoint Depression Visibility Wind Speed Wind Dir Waves Ship Positions

Red Dolphin

Last reported at 2014-May-16 15:15 UTC. Time now 2014-Aug-02 04:37 UTC.
Position N 50°17' W 001°34'.
Warning: this ship's position is months out of date.

Length 33 m; draft 5.7 m.

Type: Tanker. MMSI: 255802960.

Date/timePositionNaut miles runAvg speedWind from/ knotsBaromVisibWave heightAir tempDewpointWater temp
2014-May-16 15:15N 50°17' W 001°34'79 8.0
2014-May-16 05:20N 50°37' E 000°27'7 9.4
2014-May-16 04:33N 50°40' E 000°37'31 7.4
2014-May-16 00:25N 50°59' E 001°16'5 5.4
2014-May-15 23:32N 51°02' E 001°22'19 8.2
2014-May-15 21:17N 51°13' E 001°44'104 7.1
2014-May-15 06:29N 51°54' E 004°19'4 3.5
2014-May-15 05:18N 51°54' E 004°26'0 0.0
2014-May-15 04:25N 51°54' E 004°26'0 0.0
2014-May-15 03:18N 51°54' E 004°26'0 0.0
2014-May-15 02:32N 51°54' E 004°26'0 0.0
2014-May-15 01:23N 51°54' E 004°26'0 0.0
2014-May-15 00:25N 51°54' E 004°26'0 0.0
2014-May-14 23:15N 51°54' E 004°26'0 0.0
2014-May-14 22:31N 51°54' E 004°26'0 0.0
2014-May-14 21:30N 51°54' E 004°26'0 0.0
2014-May-14 20:31N 51°54' E 004°26'0 0.0
2014-May-14 19:32N 51°54' E 004°26'0 0.0
2014-May-14 18:30N 51°54' E 004°26'0 0.0
2014-May-14 15:30N 51°54' E 004°26'0 0.0
2014-May-14 14:32N 51°54' E 004°26'0 0.0
2014-May-14 11:19N 51°54' E 004°26'0 0.0
2014-May-14 10:30N 51°54' E 004°26'0 0.0
2014-May-14 09:29N 51°54' E 004°26'0 0.0
2014-May-14 08:20N 51°54' E 004°26'0 0.0
2014-May-14 07:18N 51°54' E 004°26'0 0.0
2014-May-14 06:16N 51°54' E 004°26'0 0.0
2014-May-14 05:32N 51°54' E 004°26'0 0.0
2014-May-14 04:33N 51°54' E 004°26'0 0.0
2014-May-14 03:28N 51°54' E 004°26'0 0.0
2014-May-14 02:32N 51°54' E 004°26'0 0.0
2014-May-14 01:29N 51°54' E 004°26'0 0.0
2014-May-14 00:15N 51°54' E 004°26'0 0.0
2014-May-13 23:26N 51°54' E 004°26'0 0.0
2014-May-13 22:32N 51°54' E 004°26'0 0.0
2014-May-13 21:29N 51°54' E 004°26'0 0.0
2014-May-13 20:33N 51°54' E 004°26'0 0.0
2014-May-13 19:18N 51°54' E 004°26'0 0.0
2014-May-13 17:26N 51°54' E 004°26'0 0.0
2014-May-13 16:31N 51°54' E 004°26'0 0.0
2014-May-13 14:31N 51°54' E 004°26'0 0.0
2014-May-13 13:28N 51°54' E 004°26'0 0.0
2014-May-13 12:32N 51°54' E 004°26'0 0.0
2014-May-13 10:32N 51°54' E 004°26'0 0.0
2014-May-13 09:26N 51°54' E 004°26'0 0.0
2014-May-13 08:31N 51°54' E 004°26'0 0.0
2014-May-13 07:26N 51°54' E 004°26'0 0.0
2014-May-13 06:32N 51°54' E 004°26'0 0.0
2014-May-13 05:26N 51°54' E 004°26'0 0.0
2014-May-13 04:30N 51°54' E 004°26'0 0.0
2014-May-13 03:31N 51°54' E 004°26'0 0.0
2014-May-13 02:31N 51°54' E 004°26'0 0.0
2014-May-13 01:19N 51°54' E 004°26'0 0.0
2014-May-13 00:33N 51°54' E 004°26'0 0.0
2014-May-12 23:27N 51°54' E 004°26'0 0.0
2014-May-12 22:33N 51°54' E 004°26'0 0.0
2014-May-12 21:30N 51°54' E 004°26'0 0.0
2014-May-12 19:21N 51°54' E 004°26'0 0.0
2014-May-12 18:33N 51°54' E 004°26'0 0.0
2014-May-12 17:53N 51°54' E 004°26'0 0.1
2014-May-12 17:28N 51°54' E 004°26'0 0.0
2014-May-12 16:33N 51°54' E 004°26'0 0.0
2014-May-12 15:31N 51°54' E 004°26'0 0.0
2014-May-12 14:33N 51°54' E 004°26'0 0.0
2014-May-12 13:27N 51°54' E 004°26'0 0.0
2014-May-12 12:32N 51°54' E 004°26'0 0.0
2014-May-12 11:29N 51°54' E 004°26'0 0.0
2014-May-12 10:31N 51°54' E 004°26'0 0.0
2014-May-12 09:21N 51°54' E 004°26'0 0.0
2014-May-12 08:31N 51°54' E 004°26'0 0.0
2014-May-12 07:29N 51°54' E 004°26'0 0.0
2014-May-12 05:06N 51°54' E 004°26'0 0.0
2014-May-12 04:33N 51°54' E 004°26'0 0.0
2014-May-12 03:20N 51°54' E 004°26'0 0.0
2014-May-12 02:32N 51°54' E 004°26'0 0.0
2014-May-12 02:16N 51°54' E 004°26'0 0.0
2014-May-12 01:26N 51°54' E 004°26'0 0.0
2014-May-12 00:30N 51°54' E 004°26'0 0.0
2014-May-11 23:20N 51°54' E 004°26'0 0.0
2014-May-11 22:33N 51°54' E 004°26'0 0.0
2014-May-11 21:28N 51°54' E 004°26'0 0.0
2014-May-11 20:30N 51°54' E 004°26'0 0.0
2014-May-11 19:28N 51°54' E 004°26'0 0.0
2014-May-11 18:30N 51°54' E 004°26'0 0.0
2014-May-11 17:31N 51°54' E 004°26'0 0.0
2014-May-11 16:19N 51°54' E 004°26'0 0.0
2014-May-11 15:29N 51°54' E 004°26'0 0.0
2014-May-11 14:30N 51°54' E 004°26'0 0.0
2014-May-11 13:28N 51°54' E 004°26'0 0.0
2014-May-11 12:31N 51°54' E 004°26'0 0.0
2014-May-11 11:12N 51°54' E 004°26'0 0.0
2014-May-11 10:24N 51°54' E 004°26'0 0.0
2014-May-11 09:19N 51°54' E 004°26'0 0.0
2014-May-11 08:33N 51°54' E 004°26'0 0.0
2014-May-11 07:32N 51°54' E 004°26'0 0.0
2014-May-11 06:31N 51°54' E 004°26'0 0.0
2014-May-11 05:31N 51°54' E 004°26'0 0.0
2014-May-11 04:28N 51°54' E 004°26'0 0.0
2014-May-11 03:26N 51°54' E 004°26'0 0.0
2014-May-11 03:03N 51°54' E 004°26'0 0.0
2014-May-11 02:20N 51°54' E 004°26'0 0.0
2014-May-11 01:29N 51°54' E 004°26'0 0.0
2014-May-11 00:33N 51°54' E 004°26'0 0.0
2014-May-10 23:24N 51°54' E 004°26'0 0.0
2014-May-10 21:28N 51°54' E 004°26'0 0.0
2014-May-10 20:30N 51°54' E 004°26'0 0.0
2014-May-10 19:29N 51°54' E 004°26'0 0.0
2014-May-10 18:25N 51°54' E 004°26'0 0.0
2014-May-10 17:29N 51°54' E 004°26'0 0.0
2014-May-10 16:30N 51°54' E 004°26'0 0.0
2014-May-10 15:27N 51°54' E 004°26'0 0.0
2014-May-10 14:29N 51°54' E 004°26'0 0.0
2014-May-10 13:23N 51°54' E 004°26'0 0.0
2014-May-10 12:32N 51°54' E 004°26'0 0.0
2014-May-10 11:26N 51°54' E 004°26'0 0.0
2014-May-10 10:33N 51°54' E 004°26'0 0.0
2014-May-10 09:33N 51°54' E 004°26'0 0.0
2014-May-10 08:32N 51°54' E 004°26'0 0.0
2014-May-09 16:30N 51°54' E 004°26'0 0.0
2014-May-09 15:27N 51°54' E 004°26'0 0.0
2014-May-09 14:24N 51°54' E 004°26'0 0.0
2014-May-09 13:28N 51°54' E 004°26'0 0.0
2014-May-09 12:31N 51°54' E 004°26'0 0.0
2014-May-09 11:23N 51°54' E 004°26'0 0.1
2014-May-09 10:31N 51°54' E 004°26'0 0.1
2014-May-09 09:17N 51°54' E 004°26'0 0.0
2014-May-09 08:32N 51°54' E 004°26'0 0.0
2014-May-09 07:33N 51°54' E 004°26'0 0.0
2014-May-09 06:15N 51°54' E 004°26'0 0.0
2014-May-09 05:27N 51°54' E 004°26'0 0.0
2014-May-09 04:32N 51°54' E 004°26'0 0.0
2014-May-09 03:28N 51°54' E 004°26'0 0.0
2014-May-09 02:33N 51°54' E 004°26'0 0.0
2014-May-09 01:26N 51°54' E 004°26'0 0.0
2014-May-09 00:32N 51°54' E 004°26'0 0.0
2014-May-08 23:29N 51°54' E 004°26'0 0.0
2014-May-08 22:32N 51°54' E 004°26'0 0.0
2014-May-08 21:33N 51°54' E 004°26'0 0.0
2014-May-08 20:15N 51°54' E 004°26'0 0.0
2014-May-08 19:28N 51°54' E 004°26'0 0.0
2014-May-08 18:15N 51°54' E 004°26'0 0.0
2014-May-08 17:28N 51°54' E 004°26'0 0.0
2014-May-08 16:24N 51°54' E 004°26'0 0.0
2014-May-08 15:33N 51°54' E 004°26'0 0.0
2014-May-08 14:21N 51°54' E 004°26'0 0.0
2014-May-08 13:33N 51°54' E 004°26'0 0.0
2014-May-08 12:31N 51°54' E 004°26'0 0.0
2014-May-08 11:27N 51°54' E 004°26'0 0.0
2014-May-08 10:31N 51°54' E 004°26'0 0.0
2014-May-08 09:27N 51°54' E 004°26'0 0.0
2014-May-08 08:31N 51°54' E 004°26'0 0.0
2014-May-08 07:27N 51°54' E 004°26'0 0.0
2014-May-08 06:31N 51°54' E 004°26'0 0.0
2014-May-08 05:25N 51°54' E 004°26'0 0.0
2014-May-08 04:27N 51°54' E 004°26'0 0.0
2014-May-08 03:25N 51°54' E 004°26'0 0.0
2014-May-08 02:30N 51°54' E 004°26'0 0.0
2014-May-08 01:23N 51°54' E 004°26'0 0.0
2014-May-08 00:29N 51°54' E 004°26'0 0.0
2014-May-07 23:26N 51°54' E 004°26'0 0.0
2014-May-07 22:31N 51°54' E 004°26'0 0.0
2014-May-07 21:23N 51°54' E 004°26'0 0.0
2014-May-07 20:33N 51°54' E 004°26'0 0.0
2014-May-07 19:19N 51°54' E 004°26'0 0.0
2014-May-07 18:31N 51°54' E 004°26'0 0.0
2014-May-07 17:19N 51°54' E 004°26'0 0.0
2014-May-07 16:29N 51°54' E 004°26'0 0.0
2014-May-07 15:29N 51°54' E 004°26'0 0.0
2014-May-07 14:31N 51°54' E 004°26'0 0.0
2014-May-07 13:28N 51°54' E 004°26'0 0.0
2014-May-07 12:29N 51°54' E 004°26'0 0.0
2014-May-07 11:26N 51°54' E 004°26'0 0.0
2014-May-07 10:26N 51°54' E 004°26'0 0.0
2014-May-07 09:33N 51°54' E 004°26'0 0.0
2014-May-07 08:32N 51°54' E 004°26'0 0.0
2014-May-07 07:28N 51°54' E 004°26'0 0.0
2014-May-07 05:30N 51°54' E 004°26'0 0.0
2014-May-07 04:30N 51°54' E 004°26'0 0.0
2014-May-07 03:28N 51°54' E 004°26'0 0.0
2014-May-07 02:30N 51°54' E 004°26'0 0.0
2014-May-07 01:20N 51°54' E 004°26'0 0.0
2014-May-07 00:27N 51°54' E 004°26'0 0.0
2014-May-06 23:25N 51°54' E 004°26'0 0.0
2014-May-06 22:30N 51°54' E 004°26'0 0.0
2014-May-06 21:26N 51°54' E 004°26'0 0.0
2014-May-06 20:27N 51°54' E 004°26'0 0.0
2014-May-06 19:19N 51°54' E 004°26'0 0.0
2014-May-06 18:24N 51°54' E 004°26'0 0.0
2014-May-06 17:28N 51°54' E 004°26'0 0.0
2014-May-06 16:33N 51°54' E 004°26'0 0.0
2014-May-06 15:26N 51°54' E 004°26'  

Dump ship's entire track history